Time;durP1;ratioP1;P1;durP2;ratioP2;P2;SDS_P1;SDS_P2;PMS_P1;PMS_P2;Temp;Humidity;BMP_temperature;BMP_pressure;BME280_temperature;BME280_humidity;BME280_pressure;Samples;Min_cycle;Max_cycle;Signal;HPM_P1;HPM_P2
2022/10/16 00:01:19;;;;;;;16.73;11.52;;;;;;;19.33;65.36;101538.41;4985669;28;20076;-76
2022/10/16 00:03:46;;;;;;;22.83;10.73;;;;;;;19.65;65.65;101601.28;4986167;28;20054;-77
2022/10/16 00:06:14;;;;;;;17.50;12.02;;;;;;;19.71;65.30;101616.78;4986136;28;20053;-77
2022/10/16 00:08:41;;;;;;;18.73;12.15;;;;;;;19.65;65.19;101612.03;4986040;28;20066;-77
2022/10/16 00:11:16;;;;;;;15.70;11.93;;;;;;;19.65;65.27;101617.44;4986915;28;20046;-77
2022/10/16 00:13:45;;;;;;;15.80;11.15;;;;;;;19.60;65.43;101619.81;4986287;28;20048;-77
2022/10/16 00:16:13;;;;;;;17.70;11.43;;;;;;;19.62;65.65;101626.69;5002204;28;20496;-76
2022/10/16 00:18:40;;;;;;;17.58;11.88;;;;;;;19.20;65.88;101563.16;5002576;28;20360;-79
2022/10/16 00:21:13;;;;;;;16.08;10.73;;;;;;;19.59;65.87;101635.13;5002377;28;20141;-77
2022/10/16 00:23:40;;;;;;;14.95;11.48;;;;;;;19.48;66.30;101619.31;5001906;28;20073;-77
2022/10/16 00:26:10;;;;;;;23.40;12.43;;;;;;;19.57;66.36;101636.31;5002208;28;20058;-77
2022/10/16 00:28:39;;;;;;;18.20;11.52;;;;;;;19.56;66.54;101640.00;5002368;28;20053;-77
2022/10/16 00:31:09;;;;;;;19.33;12.10;;;;;;;19.19;66.42;101574.06;5002003;28;20042;-77
2022/10/16 00:33:37;;;;;;;20.35;12.25;;;;;;;19.17;66.76;101574.22;4985335;28;20050;-79
2022/10/16 00:36:05;;;;;;;16.80;11.85;;;;;;;19.12;66.56;101567.69;4986527;28;20133;-78
2022/10/16 00:38:32;;;;;;;15.38;11.90;;;;;;;19.55;66.68;101630.25;5001281;28;20050;-77
2022/10/16 00:40:59;;;;;;;15.60;11.18;;;;;;;19.53;66.95;101630.41;4986868;28;20146;-77
2022/10/16 00:43:44;;;;;;;19.10;11.27;;;;;;;19.24;66.96;101587.88;4985543;28;20054;-77
2022/10/16 00:46:13;;;;;;;15.02;11.07;;;;;;;19.45;66.88;101616.13;4985108;28;20089;-77
2022/10/16 00:48:41;;;;;;;23.20;12.18;;;;;;;19.48;66.60;101637.31;4985236;28;20050;-77
2022/10/16 00:51:08;;;;;;;16.13;11.70;;;;;;;19.36;66.55;101617.97;4985298;28;20744;-78
2022/10/16 00:53:35;;;;;;;18.00;12.27;;;;;;;19.37;67.17;101625.91;4985405;28;20050;-77
2022/10/16 00:56:03;;;;;;;18.40;12.45;;;;;;;19.25;67.28;101611.09;4985447;28;20046;-78
2022/10/16 00:58:29;;;;;;;15.20;11.50;;;;;;;19.36;67.25;101632.28;4985701;28;20057;-78
2022/10/16 01:00:56;;;;;;;16.75;12.27;;;;;;;19.13;67.57;101599.81;4985374;28;20046;-78
2022/10/16 01:03:35;;;;;;;22.48;12.30;;;;;;;19.14;67.51;101603.34;4984499;28;20117;-78
2022/10/16 01:06:07;;;;;;;21.48;12.23;;;;;;;18.50;67.54;101500.91;4985241;28;20667;-77
2022/10/16 01:08:45;;;;;;;22.23;16.65;;;;;;;18.75;67.71;101550.16;4986338;28;20047;-78
2022/10/16 01:11:27;;;;;;;18.77;14.27;;;;;;;18.95;67.83;101594.59;4985148;28;20496;-77
2022/10/16 01:13:59;;;;;;;18.10;12.70;;;;;;;19.18;67.83;101628.94;4984915;28;20058;-78
2022/10/16 01:16:44;;;;;;;23.00;12.43;;;;;;;19.14;67.80;101636.47;4986694;28;20050;-77
2022/10/16 01:19:26;;;;;;;18.73;12.57;;;;;;;18.74;67.66;101586.16;4985140;28;20055;-77
2022/10/16 01:21:55;;;;;;;19.10;12.27;;;;;;;19.02;68.03;101643.22;5001743;28;20489;-75
2022/10/16 01:24:39;;;;;;;19.88;11.52;;;;;;;18.98;68.18;101649.91;4986385;28;20092;-78
2022/10/16 01:27:12;;;;;;;19.60;13.20;;;;;;;18.65;68.33;101603.28;4987132;28;20049;-78
2022/10/16 01:29:52;;;;;;;19.80;14.00;;;;;;;17.93;68.30;101490.88;5001491;28;20074;-77
2022/10/16 01:32:27;;;;;;;15.27;12.50;;;;;;;18.71;68.76;101613.34;4986470;28;20288;-77
2022/10/16 01:35:02;;;;;;;18.98;13.63;;;;;;;18.76;68.31;101627.19;4984949;28;21148;-77
2022/10/16 01:37:37;;;;;;;20.92;12.82;;;;;;;18.88;68.84;101644.69;5001077;28;20081;-78
2022/10/16 01:40:09;;;;;;;16.30;12.85;;;;;;;18.94;68.92;101653.97;4985342;28;20507;-77
2022/10/16 01:42:41;;;;;;;21.02;14.75;;;;;;;18.92;68.66;101658.66;4985261;28;20282;-77
2022/10/16 01:45:13;;;;;;;22.85;13.30;;;;;;;18.81;68.85;101654.44;4968949;28;20423;-76
2022/10/16 01:47:41;;;;;;;21.33;13.77;;;;;;;18.77;68.96;101653.09;5001328;28;20058;-77
2022/10/16 01:50:08;;;;;;;22.75;13.50;;;;;;;18.56;69.04;101627.44;5000931;28;21328;-76
2022/10/16 01:52:38;;;;;;;17.73;13.13;;;;;;;18.72;68.90;101641.97;4988498;28;20494;-75
2022/10/16 01:55:09;;;;;;;21.40;13.80;;;;;;;18.77;69.23;101659.31;4988683;28;20237;-77
2022/10/16 01:57:39;;;;;;;21.80;14.13;;;;;;;18.65;69.41;101638.25;5004556;28;20058;-76
2022/10/16 02:00:10;;;;;;;22.58;14.13;;;;;;;18.60;69.51;101635.22;5004595;28;20047;-78
2022/10/16 02:02:40;;;;;;;21.42;13.68;;;;;;;18.72;69.47;101671.53;5004668;28;20265;-77
2022/10/16 02:05:28;;;;;;;18.20;13.32;;;;;;;18.67;69.29;101672.03;4989687;28;20484;-77
2022/10/16 02:07:54;;;;;;;21.10;13.25;;;;;;;18.63;69.41;101669.84;5004806;28;20072;-77
2022/10/16 02:10:24;;;;;;;17.35;13.45;;;;;;;18.48;69.35;101651.63;5004373;28;20046;-77
2022/10/16 02:12:59;;;;;;;22.33;13.70;;;;;;;18.60;69.36;101671.00;5004268;28;20097;-76
2022/10/16 02:15:26;;;;;;;19.63;12.65;;;;;;;18.61;69.56;101671.84;5004252;28;20439;-77
2022/10/16 02:17:52;;;;;;;21.15;14.82;;;;;;;18.62;69.60;101662.75;5004155;28;20060;-76
2022/10/16 02:20:24;;;;;;;18.65;13.10;;;;;;;18.39;69.83;101624.88;4988358;28;20087;-75
2022/10/16 02:22:53;;;;;;;20.23;13.88;;;;;;;18.61;69.94;101663.78;5003985;28;20051;-78
2022/10/16 02:25:41;;;;;;;18.73;13.20;;;;;;;18.52;69.95;101647.63;4987858;28;20050;-77
2022/10/16 02:28:27;;;;;;;21.95;14.15;;;;;;;18.66;69.69;101664.94;5004313;28;20058;-77
2022/10/16 02:31:03;;;;;;;23.05;13.55;;;;;;;18.34;69.84;101620.00;5004010;28;20054;-77
2022/10/16 02:33:31;;;;;;;19.60;13.73;;;;;;;18.66;69.65;101664.94;4985423;28;20199;-77
2022/10/16 02:35:58;;;;;;;24.77;12.77;;;;;;;18.71;69.01;101662.59;4968382;28;20142;-79
2022/10/16 02:38:26;;;;;;;21.33;13.45;;;;;;;18.77;68.65;101669.25;4983217;28;20327;-77
2022/10/16 02:40:54;;;;;;;21.85;12.80;;;;;;;18.78;68.46;101660.16;4989190;28;20062;-76
2022/10/16 02:43:21;;;;;;;16.77;13.15;;;;;;;18.69;68.79;101647.66;4984090;28;20525;-77
2022/10/16 02:45:47;;;;;;;21.35;12.93;;;;;;;18.74;68.73;101661.47;4984042;28;20054;-77
2022/10/16 02:48:14;;;;;;;20.45;13.30;;;;;;;18.73;68.84;101676.75;4985088;28;20050;-77
2022/10/16 02:50:41;;;;;;;17.65;12.75;;;;;;;18.49;68.80;101652.47;4987544;28;20054;-78
2022/10/16 02:53:08;;;;;;;15.93;13.20;;;;;;;18.63;68.63;101681.44;4987369;28;20128;-78
2022/10/16 02:55:35;;;;;;;22.75;14.13;;;;;;;18.62;69.23;101681.56;4987256;28;20061;-78
2022/10/16 02:58:01;;;;;;;20.15;13.30;;;;;;;18.56;69.31;101680.38;4987095;28;20081;-79
2022/10/16 03:00:28;;;;;;;16.38;13.18;;;;;;;18.41;69.45;101663.19;4987334;28;20046;-78
2022/10/16 03:02:55;;;;;;;19.65;13.60;;;;;;;18.37;69.42;101668.03;4987106;28;20420;-77
2022/10/16 03:05:21;;;;;;;23.60;14.82;;;;;;;18.44;69.57;101682.53;4988510;28;20424;-77
2022/10/16 03:07:48;;;;;;;16.52;12.45;;;;;;;18.37;69.55;101676.09;4986446;28;20340;-78
2022/10/16 03:10:14;;;;;;;20.40;13.90;;;;;;;18.41;69.65;101682.03;4988414;28;20149;-78
2022/10/16 03:12:41;;;;;;;18.42;12.43;;;;;;;18.43;69.74;101683.53;4988302;28;20047;-77
2022/10/16 03:15:08;;;;;;;15.60;13.13;;;;;;;18.40;69.83;101678.50;5003153;28;20535;-76
2022/10/16 03:17:35;;;;;;;17.50;12.98;;;;;;;18.36;70.19;101674.44;5003172;28;20050;-77
2022/10/16 03:20:02;;;;;;;23.40;13.85;;;;;;;18.33;69.88;101680.16;5003165;28;20046;-77
2022/10/16 03:22:29;;;;;;;19.50;14.25;;;;;;;18.27;69.75;101670.84;5003179;28;20495;-78
2022/10/16 03:24:56;;;;;;;23.13;13.30;;;;;;;18.26;70.20;101673.72;5002970;28;20054;-78
2022/10/16 03:27:22;;;;;;;25.67;13.32;;;;;;;18.12;70.30;101651.81;4988252;28;20125;-78
2022/10/16 03:29:50;;;;;;;20.63;14.48;;;;;;;18.26;70.44;101679.09;5004404;28;20312;-77
2022/10/16 03:32:17;;;;;;;19.27;13.68;;;;;;;18.23;70.65;101684.78;5010103;28;20081;-77
2022/10/16 03:34:43;;;;;;;19.65;14.10;;;;;;;18.21;70.85;101676.06;5005651;28;20054;-78
2022/10/16 03:37:10;;;;;;;20.58;13.30;;;;;;;18.13;70.62;101668.78;5007865;28;20153;-78
2022/10/16 03:39:36;;;;;;;16.67;13.40;;;;;;;18.08;70.56;101668.41;4993507;28;20137;-77
2022/10/16 03:42:03;;;;;;;20.38;14.00;;;;;;;18.12;70.60;101678.69;4989319;28;20132;-78
2022/10/16 03:44:30;;;;;;;22.02;12.90;;;;;;;18.09;70.12;101673.63;4986282;28;20256;-77
2022/10/16 03:46:56;;;;;;;22.17;13.75;;;;;;;17.83;69.88;101632.50;4986676;28;20054;-77
2022/10/16 03:49:23;;;;;;;16.65;11.88;;;;;;;18.05;70.12;101666.88;5002700;28;20046;-77
2022/10/16 03:51:50;;;;;;;17.58;13.05;;;;;;;17.89;70.14;101645.31;4986262;28;20047;-76
2022/10/16 03:54:16;;;;;;;22.25;13.35;;;;;;;17.99;69.96;101654.09;4986423;28;20301;-77
2022/10/16 03:56:43;;;;;;;22.23;12.77;;;;;;;18.13;69.91;101680.38;4986303;28;20129;-76
2022/10/16 03:59:09;;;;;;;20.90;12.00;;;;;;;18.08;70.41;101674.66;4986392;28;20137;-76
2022/10/16 04:01:36;;;;;;;16.17;11.93;;;;;;;18.12;70.37;101689.44;4986046;28;20113;-78
2022/10/16 04:04:03;;;;;;;22.27;11.93;;;;;;;18.05;70.38;101677.63;4987099;28;20052;-76
2022/10/16 04:06:29;;;;;;;18.73;12.13;;;;;;;18.09;70.40;101689.75;4985697;28;20058;-77
2022/10/16 04:08:56;;;;;;;14.80;12.00;;;;;;;18.05;70.51;101696.44;4986223;28;20416;-77
2022/10/16 04:11:22;;;;;;;16.67;11.98;;;;;;;17.92;70.17;101682.59;4985739;28;20085;-78
2022/10/16 04:13:49;;;;;;;17.10;11.32;;;;;;;17.44;70.72;101612.25;4985209;28;20449;-77
2022/10/16 04:16:16;;;;;;;21.52;12.43;;;;;;;17.73;70.57;101673.72;4985987;28;20046;-77
2022/10/16 04:18:42;;;;;;;18.77;12.13;;;;;;;17.90;70.97;101698.88;4986136;28;20069;-78
2022/10/16 04:21:09;;;;;;;15.95;11.73;;;;;;;17.88;70.81;101698.19;4987350;28;20050;-77
2022/10/16 04:23:35;;;;;;;16.27;11.50;;;;;;;17.92;70.86;101698.72;5002088;28;20086;-77
2022/10/16 04:26:02;;;;;;;16.42;12.02;;;;;;;17.46;71.31;101630.91;5001899;28;20283;-78
2022/10/16 04:28:29;;;;;;;20.00;12.43;;;;;;;17.94;70.91;101719.06;5002474;28;20070;-75
2022/10/16 04:30:56;;;;;;;14.55;11.30;;;;;;;17.75;71.35;101686.16;5001625;28;20293;-78
2022/10/16 04:33:23;;;;;;;19.85;11.52;;;;;;;17.92;71.42;101712.16;5001976;28;20516;-77
2022/10/16 04:35:56;;;;;;;19.35;11.93;;;;;;;17.87;71.32;101722.53;5001835;28;20504;-77
2022/10/16 04:38:23;;;;;;;18.05;11.02;;;;;;;17.83;71.15;101715.78;4986709;28;20046;-76
2022/10/16 04:40:49;;;;;;;19.10;12.18;;;;;;;17.81;71.07;101723.16;4985768;28;20050;-76
2022/10/16 04:43:16;;;;;;;18.42;11.65;;;;;;;17.51;71.11;101685.81;4985624;28;20138;-76
2022/10/16 04:45:43;;;;;;;19.05;12.20;;;;;;;17.51;71.76;101684.97;4985430;28;20137;-78
2022/10/16 04:48:10;;;;;;;19.73;12.15;;;;;;;17.69;71.76;101725.19;4985093;28;20054;-77
2022/10/16 04:50:37;;;;;;;18.50;11.43;;;;;;;17.59;71.74;101714.56;4985513;28;20061;-77
2022/10/16 04:53:03;;;;;;;18.83;13.13;;;;;;;17.63;71.87;101713.25;4985655;28;20058;-77
2022/10/16 04:55:30;;;;;;;16.42;11.90;;;;;;;17.39;72.05;101681.69;4986095;28;20061;-76
2022/10/16 04:57:56;;;;;;;19.60;12.25;;;;;;;17.60;71.91;101710.88;4985627;28;20047;-78
2022/10/16 05:00:23;;;;;;;15.70;10.75;;;;;;;17.42;72.44;101689.41;4985235;28;20049;-77
2022/10/16 05:02:50;;;;;;;21.83;11.88;;;;;;;17.52;72.22;101713.47;4985405;28;20058;-76
2022/10/16 05:05:19;;;;;;;19.60;12.25;;;;;;;17.56;72.23;101720.25;4985264;28;20410;-77
2022/10/16 05:07:52;;;;;;;15.55;11.98;;;;;;;17.54;72.25;101722.22;4985251;28;20049;-77
2022/10/16 05:10:19;;;;;;;17.25;11.88;;;;;;;17.52;72.17;101719.72;4985279;28;20423;-78
2022/10/16 05:12:46;;;;;;;20.65;11.75;;;;;;;17.44;72.21;101710.75;4985224;28;20047;-77
2022/10/16 05:15:12;;;;;;;18.00;11.30;;;;;;;17.50;72.32;101719.03;4985822;28;20043;-76
2022/10/16 05:17:39;;;;;;;21.80;12.80;;;;;;;17.46;72.49;101719.50;4986450;28;20419;-76
2022/10/16 05:20:11;;;;;;;19.45;10.90;;;;;;;17.35;72.61;101712.50;5000828;28;20046;-77
2022/10/16 05:22:38;;;;;;;18.75;10.65;;;;;;;17.29;72.69;101705.91;5001503;28;20141;-77
2022/10/16 05:25:05;;;;;;;15.52;11.30;;;;;;;17.33;72.55;101719.00;5001688;28;20046;-77
2022/10/16 05:27:32;;;;;;;16.40;11.85;;;;;;;17.35;73.05;101723.22;5005139;28;20056;-77
2022/10/16 05:29:58;;;;;;;19.67;13.20;;;;;;;17.33;72.84;101727.06;5005925;28;20085;-77
2022/10/16 05:32:26;;;;;;;18.08;12.10;;;;;;;17.33;73.12;101729.75;4990675;28;20495;-76
2022/10/16 05:34:53;;;;;;;16.40;11.82;;;;;;;17.35;73.11;101730.44;5005224;28;20146;-76
2022/10/16 05:37:19;;;;;;;15.95;12.35;;;;;;;17.24;72.99;101713.59;5005581;28;20140;-76
2022/10/16 05:39:46;;;;;;;15.23;10.95;;;;;;;17.18;72.98;101716.03;4988996;28;20066;-77
2022/10/16 05:42:13;;;;;;;13.98;11.13;;;;;;;17.22;72.78;101720.94;4988941;28;20053;-76
2022/10/16 05:44:39;;;;;;;17.83;12.18;;;;;;;17.30;72.79;101739.78;4988909;28;20259;-76
2022/10/16 05:47:06;;;;;;;16.23;11.82;;;;;;;17.21;73.32;101735.38;5004854;28;20129;-76
2022/10/16 05:49:32;;;;;;;17.55;11.77;;;;;;;17.19;73.04;101731.97;4988930;28;20064;-76
2022/10/16 05:52:04;;;;;;;20.23;12.65;;;;;;;17.28;73.32;101747.19;4989811;28;20054;-77
2022/10/16 05:54:31;;;;;;;18.48;11.98;;;;;;;17.30;73.36;101747.00;4990649;28;20050;-78
2022/10/16 05:56:58;;;;;;;19.08;11.90;;;;;;;17.30;73.16;101747.84;4989174;28;20050;-75
2022/10/16 05:59:24;;;;;;;13.20;11.60;;;;;;;17.31;73.61;101743.34;4988781;28;20483;-77
2022/10/16 06:01:52;;;;;;;24.08;12.43;;;;;;;17.32;73.22;101755.75;4988184;28;20061;-77
2022/10/16 06:04:18;;;;;;;19.63;12.07;;;;;;;17.21;73.72;101738.03;4988297;28;20088;-78
2022/10/16 06:06:45;;;;;;;19.90;11.60;;;;;;;17.36;73.61;101750.94;4988200;28;20081;-78
2022/10/16 06:09:12;;;;;;;16.38;12.23;;;;;;;17.39;73.71;101758.69;4990567;28;20480;-77
2022/10/16 06:11:38;;;;;;;19.02;12.00;;;;;;;17.43;73.38;101765.44;4988728;28;20046;-78
2022/10/16 06:14:06;;;;;;;17.48;11.77;;;;;;;17.46;73.22;101768.66;4988735;28;20138;-77
2022/10/16 06:16:35;;;;;;;20.05;11.57;;;;;;;17.47;73.52;101774.84;4988530;28;20297;-78
2022/10/16 06:19:05;;;;;;;14.68;10.65;;;;;;;17.46;73.52;101779.38;4988259;28;20372;-78
2022/10/16 06:21:32;;;;;;;17.33;11.48;;;;;;;17.38;73.50;101770.38;5004671;28;20109;-78
2022/10/16 06:23:59;;;;;;;18.40;11.77;;;;;;;17.53;72.87;101790.34;4988483;28;20049;-78
2022/10/16 06:26:28;;;;;;;21.10;11.32;;;;;;;17.59;72.57;101795.09;4976536;28;20054;-77
2022/10/16 06:28:56;;;;;;;15.07;10.60;;;;;;;17.65;73.15;101796.34;4969077;28;20054;-78
2022/10/16 06:31:27;;;;;;;15.40;11.43;;;;;;;17.72;72.45;101802.78;4969371;28;20481;-77
2022/10/16 06:33:54;;;;;;;14.53;10.63;;;;;;;17.70;72.66;101797.56;4969079;28;20054;-78
2022/10/16 06:36:22;;;;;;;17.30;12.18;;;;;;;17.81;72.31;101809.09;4971783;28;20163;-79
2022/10/16 06:38:49;;;;;;;19.75;11.18;;;;;;;17.78;71.43;101793.25;4999194;28;20060;-79
2022/10/16 06:41:20;;;;;;;18.67;10.68;;;;;;;17.95;71.91;101819.28;4991516;28;20455;-77
2022/10/16 06:43:47;;;;;;;;;;;;;;;17.98;71.40;101827.03;4993727;28;20567;-79
2022/10/16 06:46:17;;;;;;;14.00;9.73;;;;;;;18.05;71.22;101828.09;4984697;28;20291;-76
2022/10/16 06:48:44;;;;;;;22.00;10.82;;;;;;;18.07;70.29;101815.34;4982030;28;20475;-77
2022/10/16 06:51:13;;;;;;;14.32;9.77;;;;;;;18.03;69.89;101800.53;4988404;28;20109;-76
2022/10/16 06:53:43;;;;;;;18.40;10.10;;;;;;;18.26;69.17;101824.25;4988049;28;20302;-75
2022/10/16 06:56:30;;;;;;;15.02;10.13;;;;;;;18.43;68.78;101842.16;4988039;28;20054;-76
2022/10/16 06:58:57;;;;;;;14.10;9.82;;;;;;;18.52;67.89;101841.22;4987603;28;20042;-76
2022/10/16 07:01:25;;;;;;;14.15;9.73;;;;;;;18.54;67.83;101844.59;4969157;28;20078;-76
2022/10/16 07:03:52;;;;;;;14.90;9.60;;;;;;;17.51;67.58;101675.06;4968912;28;20493;-76
2022/10/16 07:06:21;;;;;;;16.52;9.73;;;;;;;18.56;68.27;101853.34;4967624;28;20523;-77
2022/10/16 07:08:48;;;;;;;14.68;9.77;;;;;;;18.57;68.37;101840.75;4967749;28;20057;-76
2022/10/16 07:11:18;;;;;;;15.73;10.05;;;;;;;18.44;68.65;101810.75;4968608;28;20148;-76
2022/10/16 07:13:46;;;;;;;16.15;9.55;;;;;;;18.75;68.10;101860.34;4983750;28;20149;-77
2022/10/16 07:16:26;;;;;;;18.75;10.15;;;;;;;18.63;67.89;101836.56;4967485;28;20050;-76
2022/10/16 07:18:59;;;;;;;13.02;10.10;;;;;;;18.92;66.97;101853.22;5013743;28;20046;-76
2022/10/16 07:21:29;;;;;;;18.77;10.35;;;;;;;19.04;66.41;101866.41;5005641;28;20133;-78
2022/10/16 07:23:58;;;;;;;18.45;10.07;;;;;;;19.07;66.77;101874.16;4992949;28;20129;-76
2022/10/16 07:26:26;;;;;;;17.48;10.60;;;;;;;19.12;66.02;101879.91;4993513;28;20070;-77
2022/10/16 07:28:53;;;;;;;19.30;10.93;;;;;;;19.16;66.82;101887.50;4970067;28;20055;-76
2022/10/16 07:31:20;;;;;;;12.93;9.15;;;;;;;18.78;66.47;101810.78;4967325;28;20133;-77
2022/10/16 07:33:48;;;;;;;12.90;9.95;;;;;;;19.26;66.49;101871.22;4968814;28;20058;-76
2022/10/16 07:36:19;;;;;;;17.08;9.93;;;;;;;19.39;65.97;101887.75;4991911;28;20054;-76
2022/10/16 07:38:46;;;;;;;12.73;10.68;;;;;;;19.42;65.86;101897.38;4986660;28;20073;-77
2022/10/16 07:41:15;;;;;;;18.70;11.52;;;;;;;19.28;66.64;101871.88;5002998;28;20058;-78
2022/10/16 07:43:49;;;;;;;16.58;12.13;;;;;;;19.10;67.17;101844.22;4987863;28;20233;-78
2022/10/16 07:46:17;;;;;;;19.77;12.23;;;;;;;19.27;67.10;101869.34;4987994;28;20057;-75
2022/10/16 07:48:46;;;;;;;18.30;12.43;;;;;;;19.33;67.65;101883.00;4977686;28;20121;-76
2022/10/16 07:51:16;;;;;;;19.70;12.52;;;;;;;19.31;67.62;101884.19;4986325;28;20250;-76
2022/10/16 07:53:43;;;;;;;15.95;12.40;;;;;;;19.20;66.99;101861.09;4986252;28;20046;-77
2022/10/16 07:56:11;;;;;;;18.75;12.55;;;;;;;19.15;67.25;101842.75;4986196;28;20306;-76
2022/10/16 07:58:38;;;;;;;23.23;13.10;;;;;;;19.57;66.83;101894.88;4986777;28;20050;-77
2022/10/16 08:01:07;;;;;;;19.02;13.20;;;;;;;19.56;66.60;101888.63;4970917;28;20109;-77
2022/10/16 08:03:33;;;;;;;18.33;12.43;;;;;;;19.73;66.50;101913.78;4967094;28;20054;-77
2022/10/16 08:06:01;;;;;;;25.88;14.00;;;;;;;19.71;66.14;101901.50;4970069;28;20484;-78
2022/10/16 08:08:28;;;;;;;20.25;13.43;;;;;;;19.60;66.23;101878.38;4971706;28;20054;-77
2022/10/16 08:10:55;;;;;;;21.38;13.05;;;;;;;19.88;65.41;101913.13;4969875;28;20141;-77
2022/10/16 08:13:21;;;;;;;13.98;10.65;;;;;;;19.88;65.37;101907.75;4984405;28;20145;-77
2022/10/16 08:15:49;;;;;;;18.55;10.98;;;;;;;19.94;64.94;101912.50;5001995;28;20107;-80
2022/10/16 08:18:16;;;;;;;11.68;8.70;;;;;;;20.05;64.82;101922.97;5002400;28;20382;-77
2022/10/16 08:20:43;;;;;;;20.48;12.80;;;;;;;20.12;64.70;101920.41;4986182;28;20442;-77
2022/10/16 08:23:13;;;;;;;20.67;14.13;;;;;;;20.18;64.76;101923.28;5014686;28;20041;-77
2022/10/16 08:25:41;;;;;;;24.77;16.20;;;;;;;20.27;63.78;101929.56;4977549;28;20141;-76
2022/10/16 08:28:10;;;;;;;23.35;14.25;;;;;;;19.98;62.47;101873.44;4997979;28;20052;-77
2022/10/16 08:30:37;;;;;;;19.50;9.57;;;;;;;20.16;63.03;101903.75;5000726;28;20060;-77
2022/10/16 08:33:04;;;;;;;21.17;14.77;;;;;;;20.20;62.51;101905.09;4987189;28;20046;-78
2022/10/16 08:35:31;;;;;;;18.60;12.07;;;;;;;20.34;62.27;101913.50;4986587;28;20141;-78
2022/10/16 08:37:57;;;;;;;24.40;13.85;;;;;;;20.48;61.32;101924.47;4985530;28;20074;-78
2022/10/16 08:40:27;;;;;;;24.17;12.35;;;;;;;20.61;61.20;101939.34;4988365;28;20140;-75
2022/10/16 08:43:03;;;;;;;21.77;15.75;;;;;;;20.79;60.08;101952.66;4988179;28;20058;-77
2022/10/16 08:45:44;;;;;;;26.08;15.13;;;;;;;20.96;59.21;101956.16;5002889;28;20137;-76
2022/10/16 08:48:17;;;;;;;;;;;;;;;20.89;59.79;101953.28;5003014;28;20133;-76
2022/10/16 08:50:45;;;;;;;21.27;14.27;;;;;;;20.91;60.51;101954.81;4984683;28;20012;-78
2022/10/16 08:53:24;;;;;;;19.35;13.32;;;;;;;21.01;60.00;101956.47;4983822;28;20396;-77
2022/10/16 08:55:53;;;;;;;23.25;14.77;;;;;;;20.93;60.17;101930.34;4984977;28;20058;-78
2022/10/16 08:58:28;;;;;;;18.35;14.50;;;;;;;21.06;60.18;101925.25;4986841;28;20046;-75
2022/10/16 09:01:09;;;;;;;19.60;14.13;;;;;;;21.24;59.65;101943.06;4973529;28;20520;-78
2022/10/16 09:03:51;;;;;;;17.45;13.15;;;;;;;21.18;59.59;101932.97;5011625;28;20062;-78
2022/10/16 09:06:51;;;;;;;19.60;13.00;;;;;;;21.42;59.02;101949.13;4985936;28;20060;-78
2022/10/16 09:09:34;;;;;;;13.98;10.57;;;;;;;21.49;59.88;101949.25;5005878;28;20085;-77
2022/10/16 09:12:19;;;;;;;26.63;14.85;;;;;;;21.13;58.59;101885.72;4989296;28;20060;-76
2022/10/16 09:14:52;;;;;;;22.30;16.33;;;;;;;21.44;56.74;101887.66;4985978;28;20077;-77
2022/10/16 09:17:37;;;;;;;17.92;11.82;;;;;;;21.81;58.11;101939.28;4985109;28;20078;-77
2022/10/16 09:20:22;;;;;;;26.23;14.90;;;;;;;21.50;57.68;101895.03;5001387;28;20511;-78
2022/10/16 09:22:55;;;;;;;20.05;13.85;;;;;;;21.94;57.27;101947.66;5001147;28;20580;-76
2022/10/16 09:25:21;;;;;;;17.45;11.40;;;;;;;21.74;57.78;101917.53;4986417;28;20061;-77
2022/10/16 09:27:56;;;;;;;16.40;14.10;;;;;;;21.97;56.19;101934.63;4985180;28;20046;-76
2022/10/16 09:30:27;;;;;;;13.55;9.90;;;;;;;22.13;57.05;101946.34;5017591;28;20062;-77
2022/10/16 09:32:57;;;;;;;11.45;8.32;;;;;;;22.49;56.67;101940.34;4984882;28;20046;-78
2022/10/16 09:35:38;;;;;;;17.30;8.82;;;;;;;21.79;56.79;101817.84;5022089;28;20082;-79
2022/10/16 09:38:06;;;;;;;12.15;8.63;;;;;;;22.17;56.52;101907.09;4992729;28;20050;-78
2022/10/16 09:40:37;;;;;;;11.82;8.82;;;;;;;22.23;57.07;101924.50;4983383;28;20042;-78
2022/10/16 09:43:28;;;;;;;17.52;12.02;;;;;;;22.34;54.81;101935.72;4973286;28;20500;-76
2022/10/16 09:45:56;;;;;;;26.45;15.15;;;;;;;22.34;55.76;101941.16;4967529;28;20089;-78
2022/10/16 09:48:24;;;;;;;21.98;14.98;;;;;;;21.94;55.76;101858.44;4968288;28;20081;-78
2022/10/16 09:51:04;;;;;;;12.90;9.82;;;;;;;22.36;55.42;101925.56;4985231;28;20054;-78
2022/10/16 09:53:45;;;;;;;14.85;9.27;;;;;;;22.77;55.35;101936.03;4984987;28;20058;-77
2022/10/16 09:56:22;;;;;;;10.07;8.93;;;;;;;22.87;55.45;101929.50;4968240;28;20047;-77
2022/10/16 09:58:54;;;;;;;17.80;12.75;;;;;;;22.33;55.74;101889.91;4981921;28;20047;-76
2022/10/16 10:01:24;;;;;;;27.42;14.88;;;;;;;22.07;56.07;101866.78;4965936;28;20054;-78
2022/10/16 10:04:00;;;;;;;11.70;8.20;;;;;;;22.60;55.83;101923.69;4967641;28;20555;-78
2022/10/16 10:06:39;;;;;;;19.38;12.32;;;;;;;22.58;54.96;101914.91;4968162;28;20061;-77
2022/10/16 10:09:16;;;;;;;12.18;9.25;;;;;;;23.03;54.93;101915.78;4986322;28;20070;-78
2022/10/16 10:11:46;;;;;;;19.10;14.57;;;;;;;22.54;54.51;101870.28;4987132;28;20053;-80
2022/10/16 10:14:18;;;;;;;13.85;10.00;;;;;;;22.37;55.21;101847.97;4988830;28;20042;-77
2022/10/16 10:16:45;;;;;;;18.08;11.55;;;;;;;22.85;55.24;101923.44;4988446;28;20563;-78
2022/10/16 10:19:17;;;;;;;13.38;11.82;;;;;;;22.35;54.18;101861.66;4996587;28;20505;-77
2022/10/16 10:21:45;;;;;;;14.73;9.65;;;;;;;22.77;55.44;101919.78;4991615;28;20080;-77
2022/10/16 10:24:14;;;;;;;11.77;9.30;;;;;;;23.20;54.46;101935.41;4990670;28;20508;-78
2022/10/16 10:26:54;;;;;;;23.42;16.08;;;;;;;23.12;52.21;101922.81;4991586;28;20062;-78
2022/10/16 10:29:33;;;;;;;11.10;9.98;;;;;;;23.25;53.98;101933.84;4987365;28;20464;-78
2022/10/16 10:32:12;;;;;;;12.65;9.23;;;;;;;23.21;54.19;101929.81;4992004;28;20334;-78
2022/10/16 10:34:57;;;;;;;19.58;12.35;;;;;;;22.59;53.82;101819.16;4968521;28;20059;-78
2022/10/16 10:37:59;;;;;;;12.40;10.35;;;;;;;23.02;54.09;101900.59;4976760;28;20077;-79
2022/10/16 10:41:03;;;;;;;23.60;15.10;;;;;;;23.38;53.36;101926.91;4979086;28;20061;-77
2022/10/16 10:43:54;;;;;;;17.73;13.20;;;;;;;23.56;53.27;101923.78;4985965;28;20428;-78
2022/10/16 10:46:36;;;;;;;14.55;9.68;;;;;;;23.67;52.86;101916.00;4999476;28;21775;-78
2022/10/16 10:49:20;;;;;;;16.30;12.52;;;;;;;23.15;52.79;101860.13;4987213;28;20053;-77
2022/10/16 10:52:13;;;;;;;34.30;18.48;;;;;;;23.66;51.74;101918.88;5005684;28;20058;-78
2022/10/16 10:55:02;;;;;;;29.83;15.90;;;;;;;23.70;51.23;101894.97;4996229;28;20049;-77
2022/10/16 10:57:30;;;;;;;33.35;19.15;;;;;;;24.06;50.08;101925.63;5004178;28;20081;-79
2022/10/16 11:00:27;;;;;;;18.25;11.90;;;;;;;23.88;50.82;101885.38;4987449;28;20558;-77
2022/10/16 11:03:20;;;;;;;15.77;11.80;;;;;;;24.07;51.36;101916.44;4965169;28;20475;-78
2022/10/16 11:05:56;;;;;;;18.23;11.30;;;;;;;23.69;52.13;101896.84;4978031;28;20144;-79
2022/10/16 11:08:32;;;;;;;12.05;9.73;;;;;;;23.84;51.87;101913.91;4987504;28;20259;-79
2022/10/16 11:11:04;;;;;;;21.42;13.27;;;;;;;22.77;53.22;101832.31;4978386;28;20546;-79
2022/10/16 11:13:34;;;;;;;19.42;12.07;;;;;;;23.23;53.57;101900.66;4978071;28;20081;-78
2022/10/16 11:16:22;;;;;;;18.88;13.77;;;;;;;23.15;53.47;101887.22;5003581;28;20046;-79
2022/10/16 11:18:52;;;;;;;18.00;11.88;;;;;;;23.06;53.85;101901.91;5003241;28;20061;-80
2022/10/16 11:21:22;;;;;;;23.63;17.23;;;;;;;22.77;53.86;101859.41;5002903;28;20105;-77
2022/10/16 11:24:29;;;;;;;23.90;14.02;;;;;;;22.96;52.50;101902.16;4986296;28;20136;-78
2022/10/16 11:27:00;;;;;;;23.50;14.88;;;;;;;22.98;53.79;101900.09;4982995;28;20071;-77
2022/10/16 11:29:31;;;;;;;17.35;11.77;;;;;;;23.28;53.43;101901.94;4996080;28;20054;-79